Time;durP1;ratioP1;P1;durP2;ratioP2;P2;SDS_P1;SDS_P2;PMS_P1;PMS_P2;Temp;Humidity;BMP_temperature;BMP_pressure;BME280_temperature;BME280_humidity;BME280_pressure;Samples;Min_cycle;Max_cycle;Signal;HPM_P1;HPM_P2
2021/08/30 00:00:07;;;;;;;15.18;11.93;;;;;;;;;;5073334;28;20028;-73
2021/08/30 00:02:33;;;;;;;14.05;11.35;;;;;;;;;;5072109;28;20052;-71
2021/08/30 00:05:01;;;;;;;18.73;12.45;;;;;;;;;;5073353;28;20404;-73
2021/08/30 00:07:27;;;;;;;16.50;12.27;;;;;;;;;;5073481;28;20486;-72
2021/08/30 00:09:53;;;;;;;17.13;12.15;;;;;;;;;;5073058;28;20140;-73
2021/08/30 00:12:19;;;;;;;16.58;12.00;;;;;;;;;;5073244;28;20052;-72
2021/08/30 00:14:44;;;;;;;17.17;12.88;;;;;;;;;;5073600;28;20044;-72
2021/08/30 00:17:10;;;;;;;17.85;12.10;;;;;;;;;;5073570;28;20502;-72
2021/08/30 00:19:36;;;;;;;18.55;13.30;;;;;;;;;;5072071;28;20024;-71
2021/08/30 00:22:03;;;;;;;18.90;14.02;;;;;;;;;;5073453;28;20020;-73
2021/08/30 00:24:28;;;;;;;15.18;11.55;;;;;;;;;;5073253;28;20149;-73
2021/08/30 00:26:55;;;;;;;19.55;11.18;;;;;;;;;;5073320;28;20555;-73
2021/08/30 00:29:25;;;;;;;16.73;12.13;;;;;;;;;;5073159;28;20031;-73
2021/08/30 00:31:55;;;;;;;17.33;12.63;;;;;;;;;;5073350;28;20052;-74
2021/08/30 00:34:21;;;;;;;16.02;12.07;;;;;;;;;;5071882;28;20025;-72
2021/08/30 00:36:47;;;;;;;18.38;12.90;;;;;;;;;;5073006;28;20080;-72
2021/08/30 00:39:15;;;;;;;18.42;12.98;;;;;;;;;;5073208;28;20357;-72
2021/08/30 00:41:41;;;;;;;16.25;12.63;;;;;;;;;;5072950;28;20044;-71
2021/08/30 00:44:07;;;;;;;19.65;11.77;;;;;;;;;;5072958;28;20052;-71
2021/08/30 00:46:32;;;;;;;16.05;10.52;;;;;;;;;;5074753;28;20025;-72
2021/08/30 00:48:58;;;;;;;18.48;13.32;;;;;;;;;;5076826;28;20496;-72
2021/08/30 00:51:24;;;;;;;18.55;12.70;;;;;;;;;;5076079;28;20028;-71
2021/08/30 00:53:50;;;;;;;18.85;13.70;;;;;;;;;;5076891;28;20472;-71
2021/08/30 00:56:20;;;;;;;16.52;12.07;;;;;;;;;;5076786;28;20024;-71
2021/08/30 00:58:45;;;;;;;17.75;12.75;;;;;;;;;;5077587;28;20111;-72
2021/08/30 01:01:12;;;;;;;19.95;13.95;;;;;;;;;;5096698;28;20460;-72
2021/08/30 01:03:39;;;;;;;17.83;12.27;;;;;;;;;;5096673;28;20475;-72
2021/08/30 01:06:16;;;;;;;21.23;14.63;;;;;;;;;;5096703;28;20031;-73
2021/08/30 01:08:48;;;;;;;23.52;16.15;;;;;;;;;;5096697;28;20059;-71
2021/08/30 01:11:27;;;;;;;20.48;15.00;;;;;;;;;;5096429;28;20496;-71
2021/08/30 01:14:07;;;;;;;18.17;12.27;;;;;;;;;;5096702;28;20028;-71
2021/08/30 01:16:34;;;;;;;22.33;14.25;;;;;;;;;;5096407;28;20464;-71
2021/08/30 01:19:00;;;;;;;15.35;12.02;;;;;;;;;;5096402;28;20109;-71
2021/08/30 01:21:37;;;;;;;17.83;12.80;;;;;;;;;;5096181;28;20028;-71
2021/08/30 01:24:10;;;;;;;20.05;14.07;;;;;;;;;;5096376;28;20159;-71
2021/08/30 01:26:40;;;;;;;19.45;14.15;;;;;;;;;;5096542;28;20028;-71
2021/08/30 01:29:16;;;;;;;;;;;;;;;;;;5096623;28;20027;-71
2021/08/30 01:32:10;;;;;;;18.92;11.18;;;;;;;;;;5096164;28;19958;-71
2021/08/30 01:34:37;;;;;;;17.83;13.13;;;;;;;;;;5096345;28;20101;-71
2021/08/30 01:37:03;;;;;;;14.60;11.73;;;;;;;;;;5096079;28;20031;-71
2021/08/30 01:39:31;;;;;;;15.55;10.85;;;;;;;;;;5096025;28;20422;-71
2021/08/30 01:42:01;;;;;;;16.60;11.02;;;;;;;;;;5095978;28;20475;-72
2021/08/30 01:44:31;;;;;;;15.68;11.13;;;;;;;;;;5095103;28;20028;-72
2021/08/30 01:46:59;;;;;;;16.50;12.30;;;;;;;;;;5096113;28;20027;-70
2021/08/30 01:49:27;;;;;;;16.60;12.88;;;;;;;;;;5095911;28;20081;-71
2021/08/30 01:51:54;;;;;;;16.55;11.60;;;;;;;;;;5095752;28;20044;-71
2021/08/30 01:54:20;;;;;;;15.95;12.52;;;;;;;;;;5096072;28;20077;-71
2021/08/30 01:56:49;;;;;;;14.65;10.30;;;;;;;;;;5095612;28;20050;-71
2021/08/30 02:02:03;;;;;;;15.45;10.13;;;;;;;;;;5095923;28;20051;-71
2021/08/30 02:04:28;;;;;;;17.00;11.13;;;;;;;;;;5095783;28;20024;-73
2021/08/30 02:06:54;;;;;;;13.90;9.35;;;;;;;;;;5094306;28;20046;-73
2021/08/30 02:09:20;;;;;;;15.95;10.45;;;;;;;;;;5095419;28;20020;-72
2021/08/30 02:11:46;;;;;;;16.40;10.82;;;;;;;;;;5095167;28;20079;-73
2021/08/30 02:14:11;;;;;;;15.45;10.52;;;;;;;;;;5095398;28;20490;-73
2021/08/30 02:16:38;;;;;;;14.77;10.00;;;;;;;;;;5095262;28;20024;-73
2021/08/30 02:19:28;;;;;;;13.68;10.77;;;;;;;;;;5095331;28;20024;-73
2021/08/30 02:22:00;;;;;;;12.38;7.50;;;;;;;;;;5095787;28;20059;-73
2021/08/30 02:24:40;;;;;;;14.98;10.68;;;;;;;;;;5095489;28;20051;-72
2021/08/30 02:27:08;;;;;;;15.32;10.25;;;;;;;;;;5095062;28;20483;-73
2021/08/30 02:29:45;;;;;;;11.85;7.88;;;;;;;;;;5095023;28;20028;-72
2021/08/30 02:32:13;;;;;;;12.25;8.32;;;;;;;;;;5095094;28;20032;-72
2021/08/30 02:34:43;;;;;;;14.32;9.10;;;;;;;;;;5095176;28;20024;-72
2021/08/30 02:37:11;;;;;;;14.48;9.93;;;;;;;;;;5095202;28;20107;-72
2021/08/30 02:39:37;;;;;;;15.82;8.75;;;;;;;;;;5095405;28;20020;-72
2021/08/30 02:42:06;;;;;;;12.23;9.00;;;;;;;;;;5094802;28;20035;-72
2021/08/30 02:44:33;;;;;;;15.85;9.95;;;;;;;;;;5094804;28;20510;-72
2021/08/30 02:47:07;;;;;;;13.40;9.10;;;;;;;;;;5094917;28;20410;-74
2021/08/30 02:49:34;;;;;;;12.32;7.57;;;;;;;;;;5093484;28;20502;-73
2021/08/30 02:52:04;;;;;;;12.65;9.20;;;;;;;;;;5094568;28;20020;-72
2021/08/30 02:54:33;;;;;;;14.30;9.95;;;;;;;;;;5095113;28;20525;-74
2021/08/30 02:57:03;;;;;;;11.18;8.23;;;;;;;;;;5094471;28;20100;-74
2021/08/30 02:59:30;;;;;;;11.63;8.75;;;;;;;;;;5094451;28;20028;-74
2021/08/30 03:01:58;;;;;;;12.13;6.93;;;;;;;;;;5094443;28;20444;-73
2021/08/30 03:04:25;;;;;;;11.35;8.20;;;;;;;;;;5094607;28;20048;-73
2021/08/30 03:06:52;;;;;;;13.32;7.68;;;;;;;;;;5094288;28;20024;-72
2021/08/30 03:09:18;;;;;;;13.18;8.60;;;;;;;;;;5093804;28;20074;-72
2021/08/30 03:11:47;;;;;;;12.80;8.18;;;;;;;;;;5094138;28;20503;-72
2021/08/30 03:14:18;;;;;;;13.50;8.93;;;;;;;;;;5094165;28;20081;-72
2021/08/30 03:16:44;;;;;;;11.85;8.52;;;;;;;;;;5094243;28;20042;-73
2021/08/30 03:19:13;;;;;;;10.57;6.53;;;;;;;;;;5094019;28;20052;-72
2021/08/30 03:21:40;;;;;;;12.05;7.47;;;;;;;;;;5094152;28;20031;-72
2021/08/30 03:24:09;;;;;;;11.50;7.72;;;;;;;;;;5092310;28;20483;-73
2021/08/30 03:26:35;;;;;;;12.95;6.78;;;;;;;;;;5086301;28;20028;-72
2021/08/30 03:29:02;;;;;;;14.48;7.57;;;;;;;;;;5082515;28;20024;-73
2021/08/30 03:31:30;;;;;;;13.88;7.88;;;;;;;;;;5079284;28;20483;-73
2021/08/30 03:33:57;;;;;;;11.85;7.60;;;;;;;;;;5075149;28;20107;-72
2021/08/30 03:36:24;;;;;;;10.30;7.70;;;;;;;;;;5074031;28;20024;-72
2021/08/30 03:38:50;;;;;;;11.27;7.97;;;;;;;;;;5074138;28;20024;-72
2021/08/30 03:41:17;;;;;;;11.85;7.05;;;;;;;;;;5073842;28;20037;-73
2021/08/30 03:43:44;;;;;;;10.77;7.03;;;;;;;;;;5073796;28;20476;-72
2021/08/30 03:46:12;;;;;;;10.85;6.47;;;;;;;;;;5073605;28;20037;-72
2021/08/30 03:48:38;;;;;;;10.63;7.03;;;;;;;;;;5073570;28;20031;-72
2021/08/30 03:51:04;;;;;;;11.40;5.75;;;;;;;;;;5073484;28;20468;-71
2021/08/30 03:53:31;;;;;;;11.15;6.10;;;;;;;;;;5073500;28;20021;-71
2021/08/30 03:55:58;;;;;;;10.82;7.05;;;;;;;;;;5073516;28;20070;-72
2021/08/30 03:58:25;;;;;;;12.50;6.75;;;;;;;;;;5073428;28;20021;-72
2021/08/30 04:00:52;;;;;;;11.07;6.68;;;;;;;;;;5073288;28;20541;-71
2021/08/30 04:03:18;;;;;;;12.88;6.65;;;;;;;;;;5073539;28;20032;-71
2021/08/30 04:05:45;;;;;;;9.95;4.50;;;;;;;;;;5073930;28;20472;-71
2021/08/30 04:08:11;;;;;;;9.52;6.35;;;;;;;;;;5073359;28;20028;-71
2021/08/30 04:10:37;;;;;;;12.57;6.30;;;;;;;;;;5073160;28;20442;-72
2021/08/30 04:13:03;;;;;;;11.00;6.07;;;;;;;;;;5085216;28;20024;-71
2021/08/30 04:15:30;;;;;;;12.73;7.82;;;;;;;;;;5093412;28;20361;-71
2021/08/30 04:17:56;;;;;;;12.80;8.68;;;;;;;;;;5093329;28;20024;-71
2021/08/30 04:20:22;;;;;;;12.70;7.50;;;;;;;;;;5093306;28;20028;-71
2021/08/30 04:22:48;;;;;;;10.88;7.10;;;;;;;;;;5096797;28;20085;-70
2021/08/30 04:25:13;;;;;;;10.82;5.45;;;;;;;;;;5097406;28;20020;-71
2021/08/30 04:27:40;;;;;;;11.55;7.28;;;;;;;;;;5097819;28;20032;-71
2021/08/30 04:30:06;;;;;;;10.15;6.93;;;;;;;;;;5090506;28;20024;-71
2021/08/30 04:32:35;;;;;;;11.68;6.95;;;;;;;;;;5089216;28;20027;-71
2021/08/30 04:35:02;;;;;;;11.05;7.18;;;;;;;;;;5097083;28;20472;-71
2021/08/30 04:37:27;;;;;;;9.70;6.10;;;;;;;;;;5087295;28;20048;-71
2021/08/30 04:39:53;;;;;;;9.55;5.97;;;;;;;;;;5076865;28;20512;-71
2021/08/30 04:42:19;;;;;;;14.90;7.90;;;;;;;;;;5076931;28;20020;-71
2021/08/30 04:44:44;;;;;;;10.02;5.85;;;;;;;;;;5093226;28;20016;-71
2021/08/30 04:47:10;;;;;;;12.25;7.25;;;;;;;;;;5097246;28;20024;-71
2021/08/30 04:49:38;;;;;;;10.93;6.78;;;;;;;;;;5096997;28;20028;-71
2021/08/30 04:52:04;;;;;;;11.60;7.28;;;;;;;;;;5093323;28;20036;-73
2021/08/30 04:54:30;;;;;;;10.90;5.82;;;;;;;;;;5080912;28;20535;-73
2021/08/30 04:56:56;;;;;;;11.93;7.30;;;;;;;;;;5096895;28;20056;-75
2021/08/30 04:59:21;;;;;;;11.57;7.50;;;;;;;;;;5096630;28;20448;-73
2021/08/30 05:01:47;;;;;;;11.45;5.78;;;;;;;;;;5096834;28;20028;-74
2021/08/30 05:04:13;;;;;;;11.65;6.80;;;;;;;;;;5096721;28;20031;-74
2021/08/30 05:06:38;;;;;;;13.27;7.18;;;;;;;;;;5097195;28;20032;-73
2021/08/30 05:09:04;;;;;;;11.25;7.45;;;;;;;;;;5096828;28;20069;-73
2021/08/30 05:11:30;;;;;;;11.50;7.35;;;;;;;;;;5096335;28;20044;-73
2021/08/30 05:13:56;;;;;;;9.48;6.90;;;;;;;;;;5096516;28;20024;-84
2021/08/30 05:16:21;;;;;;;9.57;5.65;;;;;;;;;;5090293;28;20070;-72
2021/08/30 05:18:47;;;;;;;8.82;5.97;;;;;;;;;;5095152;28;20502;-73
2021/08/30 05:21:13;;;;;;;8.55;4.72;;;;;;;;;;5096562;28;20035;-72
2021/08/30 05:23:38;;;;;;;9.98;6.65;;;;;;;;;;5089862;28;20020;-73
2021/08/30 05:26:04;;;;;;;10.18;4.82;;;;;;;;;;5096549;28;20442;-73
2021/08/30 05:28:29;;;;;;;8.20;3.90;;;;;;;;;;5096842;28;20490;-72
2021/08/30 05:30:55;;;;;;;8.43;4.25;;;;;;;;;;5096339;28;20035;-72
2021/08/30 05:33:21;;;;;;;6.85;4.95;;;;;;;;;;5090351;28;20028;-75
2021/08/30 05:35:47;;;;;;;8.70;5.45;;;;;;;;;;5084689;28;20029;-75
2021/08/30 05:38:12;;;;;;;8.45;4.25;;;;;;;;;;5074746;28;20032;-75
2021/08/30 05:40:38;;;;;;;6.53;4.88;;;;;;;;;;5075784;28;20507;-74
2021/08/30 05:43:03;;;;;;;7.20;3.63;;;;;;;;;;5075761;28;20092;-74
2021/08/30 05:45:31;;;;;;;6.93;3.63;;;;;;;;;;5077678;28;20019;-72
2021/08/30 05:47:57;;;;;;;11.75;5.80;;;;;;;;;;5079963;28;20032;-72
2021/08/30 05:50:22;;;;;;;9.52;5.10;;;;;;;;;;5082791;28;20039;-72
2021/08/30 05:52:48;;;;;;;8.52;4.88;;;;;;;;;;5079704;28;20035;-73
2021/08/30 05:55:14;;;;;;;6.47;4.32;;;;;;;;;;5096066;28;20020;-72
2021/08/30 05:57:39;;;;;;;5.95;3.75;;;;;;;;;;5094982;28;20024;-73
2021/08/30 06:00:06;;;;;;;7.47;4.97;;;;;;;;;;5092533;28;20071;-73
2021/08/30 06:02:31;;;;;;;6.60;3.03;;;;;;;;;;5096272;28;20107;-73
2021/08/30 06:04:57;;;;;;;8.80;3.72;;;;;;;;;;5095678;28;20437;-74
2021/08/30 06:07:23;;;;;;;7.55;4.55;;;;;;;;;;5095534;28;20070;-74
2021/08/30 06:09:48;;;;;;;7.43;4.15;;;;;;;;;;5095346;28;20051;-73
2021/08/30 06:12:14;;;;;;;7.05;4.43;;;;;;;;;;5095377;28;20020;-72
2021/08/30 06:14:40;;;;;;;6.53;4.32;;;;;;;;;;5095378;28;20425;-75
2021/08/30 06:17:06;;;;;;;8.75;4.05;;;;;;;;;;5083592;28;20036;-72
2021/08/30 06:19:32;;;;;;;7.25;3.80;;;;;;;;;;5083437;28;20361;-73
2021/08/30 06:21:59;;;;;;;6.05;4.38;;;;;;;;;;5076956;28;20021;-72
2021/08/30 06:24:25;;;;;;;6.60;3.10;;;;;;;;;;5073694;28;20126;-73
2021/08/30 06:26:51;;;;;;;6.63;2.45;;;;;;;;;;5074928;28;20031;-74
2021/08/30 06:29:16;;;;;;;3.67;1.92;;;;;;;;;;5083196;28;20106;-79
2021/08/30 06:31:42;;;;;;;4.57;2.25;;;;;;;;;;5095158;28;20028;-72
2021/08/30 06:34:08;;;;;;;6.15;3.15;;;;;;;;;;5095070;28;20518;-73
2021/08/30 06:36:33;;;;;;;4.75;2.53;;;;;;;;;;5094911;28;20027;-72
2021/08/30 06:39:02;;;;;;;5.72;3.42;;;;;;;;;;5094876;28;20028;-72
2021/08/30 06:41:28;;;;;;;4.57;3.45;;;;;;;;;;5094814;28;20035;-85
2021/08/30 06:43:54;;;;;;;4.07;1.90;;;;;;;;;;5094314;28;20418;-73
2021/08/30 06:46:19;;;;;;;4.60;2.75;;;;;;;;;;5094849;28;20509;-73
2021/08/30 06:48:45;;;;;;;7.25;3.20;;;;;;;;;;5094740;28;20031;-72
2021/08/30 06:51:11;;;;;;;6.38;3.22;;;;;;;;;;5093818;28;20095;-86
2021/08/30 06:53:38;;;;;;;5.68;2.72;;;;;;;;;;5094683;28;20024;-80
2021/08/30 06:56:04;;;;;;;6.78;2.45;;;;;;;;;;5089665;28;20035;-84
2021/08/30 06:58:29;;;;;;;5.60;2.53;;;;;;;;;;5093820;28;20020;-85
2021/08/30 07:00:55;;;;;;;5.65;1.83;;;;;;;;;;5092555;28;20114;-74
2021/08/30 07:03:20;;;;;;;3.90;2.28;;;;;;;;;;5093590;28;20050;-86
2021/08/30 07:05:46;;;;;;;4.45;2.75;;;;;;;;;;5091663;28;20525;-73
2021/08/30 07:08:12;;;;;;;3.35;2.10;;;;;;;;;;5092777;28;20416;-73
2021/08/30 07:10:37;;;;;;;6.15;1.33;;;;;;;;;;5092158;28;20426;-73
2021/08/30 07:13:03;;;;;;;5.72;2.35;;;;;;;;;;5092593;28;20491;-83
2021/08/30 07:15:29;;;;;;;5.35;3.13;;;;;;;;;;5094248;28;20028;-78
2021/08/30 07:17:54;;;;;;;4.18;2.30;;;;;;;;;;5092970;28;20042;-77
2021/08/30 07:20:20;;;;;;;5.22;2.40;;;;;;;;;;5083227;28;20035;-78
2021/08/30 07:32:50;;;;;;;5.13;3.08;;;;;;;;;;5074669;28;20040;-73
2021/08/30 07:35:16;;;;;;;4.57;1.60;;;;;;;;;;5074270;28;20024;-70
2021/08/30 07:37:42;;;;;;;4.75;2.67;;;;;;;;;;5073981;28;20369;-70
2021/08/30 07:40:08;;;;;;;4.10;2.33;;;;;;;;;;5073882;28;20369;-71
2021/08/30 07:42:34;;;;;;;3.35;1.30;;;;;;;;;;5073703;28;20024;-71
2021/08/30 07:45:00;;;;;;;4.13;3.17;;;;;;;;;;5073595;28;20107;-71
2021/08/30 07:47:26;;;;;;;4.25;2.65;;;;;;;;;;5073762;28;20024;-71
2021/08/30 07:49:53;;;;;;;4.43;1.50;;;;;;;;;;5074087;28;20052;-71
2021/08/30 07:52:20;;;;;;;4.40;1.45;;;;;;;;;;5092608;28;20110;-72
2021/08/30 07:54:46;;;;;;;4.25;3.05;;;;;;;;;;5088100;28;20437;-71
2021/08/30 07:57:12;;;;;;;4.68;1.17;;;;;;;;;;5100000;28;20051;-71
2021/08/30 07:59:37;;;;;;;5.28;2.25;;;;;;;;;;5115159;28;20038;-71
2021/08/30 08:02:03;;;;;;;4.68;2.47;;;;;;;;;;5097270;28;20502;-72
2021/08/30 08:04:29;;;;;;;4.15;1.13;;;;;;;;;;5094260;28;20027;-72
2021/08/30 08:06:55;;;;;;;4.25;2.55;;;;;;;;;;5092244;28;20495;-71
2021/08/30 08:09:20;;;;;;;4.03;1.15;;;;;;;;;;5093960;28;20040;-71
2021/08/30 08:11:47;;;;;;;3.28;1.27;;;;;;;;;;5091824;28;20036;-71
2021/08/30 08:14:13;;;;;;;2.75;0.80;;;;;;;;;;5093494;28;20495;-71
2021/08/30 08:16:39;;;;;;;5.15;2.92;;;;;;;;;;5093614;28;20031;-71
2021/08/30 08:19:05;;;;;;;3.80;1.88;;;;;;;;;;5093614;28;20032;-71
2021/08/30 08:21:33;;;;;;;3.05;0.88;;;;;;;;;;5093370;28;20035;-70
2021/08/30 08:24:00;;;;;;;3.05;1.25;;;;;;;;;;5092822;28;20115;-71
2021/08/30 08:26:25;;;;;;;3.40;1.30;;;;;;;;;;5092640;28;20024;-71
2021/08/30 08:28:51;;;;;;;4.10;1.45;;;;;;;;;;5092349;28;20480;-71
2021/08/30 08:31:16;;;;;;;4.18;1.27;;;;;;;;;;5091972;28;20099;-71
2021/08/30 08:33:44;;;;;;;3.33;2.30;;;;;;;;;;5091311;28;20381;-72
2021/08/30 08:36:10;;;;;;;3.85;1.95;;;;;;;;;;5091333;28;20035;-71
2021/08/30 08:38:35;;;;;;;3.45;1.35;;;;;;;;;;5091300;28;20016;-71
2021/08/30 08:41:01;;;;;;;4.07;1.10;;;;;;;;;;5091586;28;20031;-71
2021/08/30 08:43:29;;;;;;;4.22;1.58;;;;;;;;;;5085702;28;20028;-71
2021/08/30 08:45:54;;;;;;;5.82;1.55;;;;;;;;;;5073571;28;20033;-71
2021/08/30 08:48:21;;;;;;;5.30;1.27;;;;;;;;;;5080495;28;20024;-71
2021/08/30 08:50:47;;;;;;;5.07;1.52;;;;;;;;;;5092332;28;20020;-77
2021/08/30 08:53:13;;;;;;;3.70;1.40;;;;;;;;;;5093175;28;20035;-71
2021/08/30 08:55:39;;;;;;;4.65;4.13;;;;;;;;;;5093377;28;20020;-71
2021/08/30 08:58:12;;;;;;;5.60;1.25;;;;;;;;;;5093145;28;20028;-71
2021/08/30 09:00:43;;;;;;;3.95;1.70;;;;;;;;;;5093029;28;20032;-72
2021/08/30 09:03:27;;;;;;;5.25;1.60;;;;;;;;;;5093048;28;20028;-71
2021/08/30 09:06:05;;;;;;;5.13;2.75;;;;;;;;;;5093275;28;20475;-71
2021/08/30 09:08:41;;;;;;;3.60;1.73;;;;;;;;;;5094494;28;20111;-71
2021/08/30 09:11:21;;;;;;;4.35;1.60;;;;;;;;;;5096505;28;20053;-71
2021/08/30 09:13:57;;;;;;;3.20;1.58;;;;;;;;;;5096603;28;20107;-71
2021/08/30 09:16:25;;;;;;;3.55;1.85;;;;;;;;;;5096738;28;20023;-71
2021/08/30 09:19:03;;;;;;;2.63;0.70;;;;;;;;;;5096508;28;20024;-71
2021/08/30 09:21:28;;;;;;;3.25;1.55;;;;;;;;;;5095007;28;20483;-71
2021/08/30 09:23:54;;;;;;;4.10;2.72;;;;;;;;;;5096807;28;20027;-70
2021/08/30 09:26:21;;;;;;;3.40;1.70;;;;;;;;;;5096300;28;20035;-70
2021/08/30 09:28:58;;;;;;;3.50;1.40;;;;;;;;;;5089234;28;20039;-73
2021/08/30 09:31:23;;;;;;;3.60;1.45;;;;;;;;;;5096478;28;20024;-73
2021/08/30 09:33:52;;;;;;;4.32;2.90;;;;;;;;;;5096964;28;20020;-71
2021/08/30 09:36:19;;;;;;;3.42;1.42;;;;;;;;;;5095173;28;20032;-72
2021/08/30 09:38:52;;;;;;;4.03;1.58;;;;;;;;;;5096118;28;20102;-70
2021/08/30 09:41:19;;;;;;;5.03;2.40;;;;;;;;;;5096396;28;20467;-88
2021/08/30 09:43:45;;;;;;;4.70;1.58;;;;;;;;;;5096833;28;20035;-87
2021/08/30 09:46:11;;;;;;;4.32;2.55;;;;;;;;;;5097109;28;20024;-90
2021/08/30 09:48:43;;;;;;;5.10;2.17;;;;;;;;;;5094314;28;20039;-86
2021/08/30 09:51:09;;;;;;;3.67;1.65;;;;;;;;;;5092424;28;20116;-73
2021/08/30 09:53:35;;;;;;;4.20;1.77;;;;;;;;;;5095997;28;20055;-74
2021/08/30 09:56:01;;;;;;;3.83;1.52;;;;;;;;;;5095974;28;20020;-72
2021/08/30 09:58:28;;;;;;;5.00;4.00;;;;;;;;;;5095795;28;20085;-72
2021/08/30 10:00:59;;;;;;;3.70;1.48;;;;;;;;;;5095410;28;20028;-73
2021/08/30 10:03:30;;;;;;;4.85;3.47;;;;;;;;;;5087938;28;20134;-80
2021/08/30 10:05:58;;;;;;;5.00;1.67;;;;;;;;;;5095685;28;20035;-73
2021/08/30 10:08:25;;;;;;;4.63;2.03;;;;;;;;;;5095692;28;20356;-73
2021/08/30 10:10:51;;;;;;;4.70;3.25;;;;;;;;;;5095319;28;20094;-72
2021/08/30 10:13:18;;;;;;;4.95;2.97;;;;;;;;;;5090457;28;20024;-73
2021/08/30 10:15:50;;;;;;;4.03;2.08;;;;;;;;;;5095417;28;20028;-72
2021/08/30 10:18:20;;;;;;;6.75;2.80;;;;;;;;;;5095698;28;20028;-72
2021/08/30 10:20:49;;;;;;;3.90;1.85;;;;;;;;;;5093150;28;20040;-73
2021/08/30 10:23:15;;;;;;;7.22;3.03;;;;;;;;;;5093502;28;20415;-72
2021/08/30 10:25:54;;;;;;;4.63;3.08;;;;;;;;;;5093180;28;20360;-72
2021/08/30 10:28:20;;;;;;;4.15;1.70;;;;;;;;;;5093188;28;20027;-73
2021/08/30 10:30:55;;;;;;;7.50;2.35;;;;;;;;;;5093101;28;20024;-73
2021/08/30 10:33:24;;;;;;;4.70;2.65;;;;;;;;;;5093454;28;20546;-72
2021/08/30 10:35:50;;;;;;;4.40;2.92;;;;;;;;;;5094361;28;20099;-72
2021/08/30 10:38:21;;;;;;;6.80;1.92;;;;;;;;;;5095012;28;20069;-73
2021/08/30 10:40:54;;;;;;;6.15;2.80;;;;;;;;;;5095368;28;20024;-72
2021/08/30 10:43:28;;;;;;;4.32;2.35;;;;;;;;;;5094321;28;20032;-72
2021/08/30 10:45:58;;;;;;;7.80;2.30;;;;;;;;;;5085537;28;20468;-70
2021/08/30 10:48:36;;;;;;;4.15;1.75;;;;;;;;;;5080376;28;20025;-70
2021/08/30 10:51:13;;;;;;;6.03;4.60;;;;;;;;;;5089570;28;20016;-71
2021/08/30 10:53:39;;;;;;;4.10;2.17;;;;;;;;;;5093620;28;20464;-71
2021/08/30 10:56:09;;;;;;;6.53;2.40;;;;;;;;;;5085757;28;20024;-71
2021/08/30 10:58:35;;;;;;;4.47;2.42;;;;;;;;;;5093276;28;20463;-71
2021/08/30 11:01:12;;;;;;;4.85;2.90;;;;;;;;;;5095034;28;20119;-71
2021/08/30 11:03:39;;;;;;;5.80;3.05;;;;;;;;;;5094815;28;20055;-72
2021/08/30 11:06:10;;;;;;;5.30;2.63;;;;;;;;;;5094498;28;20020;-71
2021/08/30 11:08:39;;;;;;;6.00;2.88;;;;;;;;;;5094519;28;20024;-71
2021/08/30 11:11:12;;;;;;;;;;;;;;;;;;5094655;28;20075;-72
2021/08/30 11:13:39;;;;;;;5.47;2.00;;;;;;;;;;5095110;28;19965;-73
2021/08/30 11:16:24;;;;;;;6.40;2.72;;;;;;;;;;5094299;28;20095;-72
2021/08/30 11:19:14;;;;;;;5.07;1.92;;;;;;;;;;5094684;28;20056;-74
2021/08/30 11:21:53;;;;;;;5.03;3.05;;;;;;;;;;5094376;28;20027;-73
2021/08/30 11:24:25;;;;;;;4.25;1.98;;;;;;;;;;5094370;28;20020;-72
2021/08/30 11:26:52;;;;;;;4.45;2.97;;;;;;;;;;5094102;28;20379;-72
2021/08/30 11:29:19;;;;;;;4.97;3.22;;;;;;;;;;5094356;28;20032;-72
2021/08/30 11:31:45;;;;;;;6.50;3.17;;;;;;;;;;5092747;28;20043;-71
2021/08/30 11:34:31;;;;;;;5.15;2.65;;;;;;;;;;5094066;28;20047;-72
2021/08/30 11:37:00;;;;;;;6.00;2.92;;;;;;;;;;5093196;28;20439;-71
2021/08/30 11:39:27;;;;;;;5.45;2.88;;;;;;;;;;5093523;28;20480;-73
2021/08/30 11:41:57;;;;;;;7.55;3.45;;;;;;;;;;5089967;28;20412;-73
2021/08/30 11:44:23;;;;;;;4.93;2.63;;;;;;;;;;5092919;28;20494;-72
2021/08/30 11:46:57;;;;;;;5.60;2.83;;;;;;;;;;5093767;28;20028;-73
2021/08/30 11:49:25;;;;;;;9.18;3.70;;;;;;;;;;5094237;28;20024;-72
2021/08/30 11:51:53;;;;;;;5.22;3.13;;;;;;;;;;5093752;28;20039;-73
2021/08/30 11:54:26;;;;;;;6.78;3.38;;;;;;;;;;5093880;28;20081;-74
2021/08/30 11:56:54;;;;;;;7.70;4.85;;;;;;;;;;5093627;28;20383;-73
2021/08/30 11:59:25;;;;;;;8.10;3.15;;;;;;;;;;5094087;28;20073;-73
2021/08/30 12:01:51;;;;;;;7.00;5.32;;;;;;;;;;5086863;28;20079;-73
2021/08/30 12:04:18;;;;;;;7.45;5.38;;;;;;;;;;5072091;28;20024;-74
2021/08/30 12:06:53;;;;;;;7.05;3.72;;;;;;;;;;5072185;28;20025;-72
2021/08/30 12:09:18;;;;;;;6.82;4.07;;;;;;;;;;5073873;28;20016;-72
2021/08/30 12:11:54;;;;;;;6.22;3.92;;;;;;;;;;5073316;28;20396;-71
2021/08/30 12:14:23;;;;;;;9.10;5.03;;;;;;;;;;5073343;28;20024;-71
2021/08/30 12:16:56;;;;;;;6.13;3.17;;;;;;;;;;5073514;28;20029;-70
2021/08/30 12:19:24;;;;;;;4.50;2.30;;;;;;;;;;5076763;28;20029;-70
2021/08/30 12:21:49;;;;;;;8.90;5.78;;;;;;;;;;5088628;28;20133;-71
2021/08/30 12:24:21;;;;;;;8.05;4.25;;;;;;;;;;5096664;28;20061;-73
2021/08/30 12:26:51;;;;;;;5.88;4.90;;;;;;;;;;5072455;28;20369;-73
2021/08/30 12:29:21;;;;;;;6.15;3.53;;;;;;;;;;5093164;28;20040;-72
2021/08/30 12:31:55;;;;;;;6.53;3.15;;;;;;;;;;5095570;28;20078;-73
2021/08/30 12:34:24;;;;;;;6.32;2.75;;;;;;;;;;5098162;28;20071;-74
2021/08/30 12:36:51;;;;;;;5.70;2.67;;;;;;;;;;5095156;28;20032;-74
2021/08/30 12:39:24;;;;;;;11.02;3.22;;;;;;;;;;5096059;28;20035;-72
2021/08/30 12:41:56;;;;;;;10.02;2.78;;;;;;;;;;5079453;28;20048;-72
2021/08/30 12:44:23;;;;;;;4.45;2.22;;;;;;;;;;5099765;28;20091;-73
2021/08/30 12:46:51;;;;;;;5.72;4.60;;;;;;;;;;5097128;28;20036;-71
2021/08/30 12:49:20;;;;;;;6.55;5.28;;;;;;;;;;5101029;28;20019;-71
2021/08/30 12:52:02;;;;;;;5.13;2.53;;;;;;;;;;5082027;28;20040;-71
2021/08/30 12:54:28;;;;;;;8.20;5.45;;;;;;;;;;5099868;28;20035;-69
2021/08/30 12:56:54;;;;;;;5.35;2.85;;;;;;;;;;5081676;28;20544;-71
2021/08/30 12:59:20;;;;;;;7.28;5.57;;;;;;;;;;5097051;28;20032;-70
2021/08/30 13:01:48;;;;;;;10.90;4.85;;;;;;;;;;5097877;28;20039;-70
2021/08/30 13:04:17;;;;;;;5.68;2.65;;;;;;;;;;5099788;28;20024;-72
2021/08/30 13:06:42;;;;;;;6.40;5.70;;;;;;;;;;5097262;28;20116;-70
2021/08/30 13:09:08;;;;;;;4.82;2.72;;;;;;;;;;5096837;28;20048;-71
2021/08/30 13:11:35;;;;;;;5.38;2.95;;;;;;;;;;5096853;28;20518;-71
2021/08/30 13:14:01;;;;;;;5.10;2.70;;;;;;;;;;5098289;28;20024;-70
2021/08/30 13:16:29;;;;;;;6.65;5.82;;;;;;;;;;5093324;28;20107;-73
2021/08/30 13:18:54;;;;;;;5.40;2.92;;;;;;;;;;5085000;28;20111;-73
2021/08/30 13:21:20;;;;;;;6.15;3.03;;;;;;;;;;5076186;28;20159;-73
2021/08/30 13:23:46;;;;;;;7.63;5.85;;;;;;;;;;5077489;28;20476;-71
2021/08/30 13:26:11;;;;;;;7.43;3.70;;;;;;;;;;5086843;28;20046;-71
2021/08/30 13:28:39;;;;;;;5.82;5.18;;;;;;;;;;5077060;28;20429;-72
2021/08/30 13:31:05;;;;;;;5.82;2.97;;;;;;;;;;5088908;28;20020;-72
2021/08/30 13:33:40;;;;;;;32.65;4.22;;;;;;;;;;5094632;28;20034;-71
2021/08/30 13:36:12;;;;;;;6.72;3.00;;;;;;;;;;5095177;28;20020;-70
2021/08/30 13:38:38;;;;;;;7.88;3.40;;;;;;;;;;5095671;28;20099;-70
2021/08/30 13:41:11;;;;;;;5.13;2.70;;;;;;;;;;5095450;28;20479;-71
2021/08/30 13:43:39;;;;;;;5.78;2.80;;;;;;;;;;5095804;28;20039;-71
2021/08/30 13:46:15;;;;;;;6.65;3.55;;;;;;;;;;5095004;28;20039;-72
2021/08/30 13:48:52;;;;;;;;;;;;;;;;;;5096758;28;20059;-71
2021/08/30 13:51:18;;;;;;;;;;;;;;;;;;5097006;28;20355;-72
2021/08/30 13:53:45;;;;;;;7.53;3.40;;;;;;;;;;5096945;28;19912;-72
2021/08/30 13:56:11;;;;;;;5.68;3.08;;;;;;;;;;5096301;28;20044;-69
2021/08/30 13:58:37;;;;;;;6.05;4.75;;;;;;;;;;5097584;28;20027;-70
2021/08/30 14:01:03;;;;;;;6.25;5.50;;;;;;;;;;5097076;28;20028;-70
2021/08/30 14:03:28;;;;;;;5.15;2.78;;;;;;;;;;5098542;28;20400;-72
2021/08/30 14:05:55;;;;;;;5.20;2.88;;;;;;;;;;5088993;28;20080;-72
2021/08/30 14:08:21;;;;;;;8.30;5.00;;;;;;;;;;5044859;28;20491;-70
2021/08/30 14:10:47;;;;;;;8.60;3.63;;;;;;;;;;5091167;28;20067;-69
2021/08/30 14:13:13;;;;;;;5.40;2.38;;;;;;;;;;5093706;28;20047;-72
2021/08/30 14:15:41;;;;;;;5.10;2.72;;;;;;;;;;5075469;28;20054;-71
2021/08/30 14:18:08;;;;;;;5.30;2.40;;;;;;;;;;5077480;28;20029;-71
2021/08/30 14:20:35;;;;;;;6.28;2.58;;;;;;;;;;5076861;28;20028;-72
2021/08/30 14:23:01;;;;;;;6.57;3.25;;;;;;;;;;5059902;28;20063;-72
2021/08/30 14:25:27;;;;;;;9.93;3.40;;;;;;;;;;5077182;28;20044;-72
2021/08/30 14:27:55;;;;;;;6.35;2.58;;;;;;;;;;5075653;28;20033;-71
2021/08/30 14:30:22;;;;;;;4.75;2.22;;;;;;;;;;5077513;28;20028;-71
2021/08/30 14:32:49;;;;;;;5.43;2.88;;;;;;;;;;5078011;28;20422;-71
2021/08/30 14:35:15;;;;;;;5.88;2.30;;;;;;;;;;5077098;28;20119;-71
2021/08/30 14:37:42;;;;;;;5.30;2.80;;;;;;;;;;5076080;28;20145;-71
2021/08/30 14:40:09;;;;;;;7.03;3.03;;;;;;;;;;5076362;28;20050;-71
2021/08/30 14:42:37;;;;;;;5.72;2.50;;;;;;;;;;5075091;28;20035;-74
2021/08/30 14:45:04;;;;;;;6.10;4.38;;;;;;;;;;5092890;28;20035;-70
2021/08/30 14:47:30;;;;;;;5.82;2.65;;;;;;;;;;5096110;28;20105;-70
2021/08/30 14:49:56;;;;;;;5.00;2.22;;;;;;;;;;5095756;28;20027;-70
2021/08/30 14:52:23;;;;;;;6.05;2.20;;;;;;;;;;5094691;28;20027;-70
2021/08/30 14:54:49;;;;;;;5.53;2.22;;;;;;;;;;5095882;28;20020;-70